Latest Weather Observations for Rocky Gully South

IDW60801

Issued at 2:02 am WST Friday 3 July 2015 (issued every 30 minutes, with the page automatically refreshed every 10 minutes)

About weather observations | Map of weather stations | Latest weather observations for WA | Other Formats
Station Details ID: 009964 Name: ROCKY GULLY Lat: -34.57 Lon: 117.01 Height: 250.0 m
Data from the previous 72 hours. | See also: Recent months at Rocky Gully South
Date/Time
WST
Temp
°C
App
Temp
°C
Dew
Point
Rel
Hum
%
Delta-T
°C
Wind Press
QNH
hPa
Press
MSL
hPa
Rain
since 9 am
mm
Dir
 
Spd
km/h
Gust
km/h
Spd
kts
Gust
kts
03/02:00am 10.3 8.6 8.4 88 0.9 N 7 11 4 6 - - 0.0
03/01:30am 10.1 8.5 7.9 86 1.1 N 6 7 3 4 - - 0.0
03/01:00am 10.6 8.9 8.2 85 1.2 N 7 9 4 5 - - 0.0
03/12:30am 10.7 8.9 7.8 82 1.4 N 7 11 4 6 - - 0.0
03/12:00am 11.2 8.7 8.1 81 1.5 N 11 13 6 7 - - 0.0
 
Date/Time
WST
Temp
°C
App
Temp
°C
Dew
Point
Rel
Hum
%
Delta-T
°C
Wind Press
QNH
hPa
Press
MSL
hPa
Rain
since 9 am
mm
Dir
 
Spd
km/h
Gust
km/h
Spd
kts
Gust
kts
02/11:30pm 11.4 9.3 8.1 80 1.6 NNW 9 15 5 8 - - 0.0
02/11:00pm 11.2 9.1 8.1 81 1.5 N 9 13 5 7 - - 0.0
02/10:30pm 11.3 9.5 8.0 80 1.6 N 7 11 4 6 - - 0.0
02/10:00pm 11.2 9.0 7.9 80 1.6 N 9 13 5 7 - - 0.0
02/09:30pm 11.8 10.1 8.5 80 1.7 N 7 11 4 6 - - 0.0
02/09:00pm 11.6 9.9 8.3 80 1.6 N 7 9 4 5 - - 0.0
02/08:30pm 11.7 10.1 8.0 78 1.8 N 6 7 3 4 - - 0.0
02/08:00pm 12.5 10.8 8.2 75 2.2 N 7 13 4 7 - - 0.0
02/07:30pm 12.6 11.0 8.7 77 2.0 N 7 11 4 6 - - 0.0
02/07:00pm 12.6 11.2 8.7 77 2.0 N 6 7 3 4 - - 0.0
02/06:30pm 13.1 11.7 9.0 76 2.1 N 6 9 3 5 - - 0.0
02/06:00pm 13.8 12.4 9.5 75 2.2 N 7 9 4 5 - - 0.0
02/05:30pm 14.6 13.3 10.0 74 2.4 NNE 7 9 4 5 - - 0.0
02/05:00pm 14.8 13.7 10.8 77 2.1 NNE 7 9 4 5 - - 0.0
02/04:30pm 15.9 15.4 10.7 71 2.8 N 4 7 2 4 - - 0.0
02/04:00pm 17.3 16.3 10.9 66 3.5 N 7 11 4 6 - - 0.0
02/03:30pm 17.9 16.0 10.5 62 4.0 N 11 15 6 8 - - 0.0
02/03:00pm 16.6 15.5 10.5 67 3.3 N 7 11 4 6 - - 0.0
02/02:30pm 16.3 14.2 9.9 66 3.4 N 11 17 6 9 - - 0.0
02/02:00pm 16.1 13.9 9.3 64 3.6 N 11 19 6 10 - - 0.0
02/01:30pm 15.8 13.6 9.5 66 3.3 N 11 20 6 11 - - 0.0
02/01:00pm 15.6 13.0 9.3 66 3.3 N 13 20 7 11 - - 0.0
02/12:30pm 15.9 14.0 10.4 70 2.9 N 11 20 6 11 - - 0.0
02/12:00pm 15.4 13.1 10.4 72 2.7 N 13 19 7 10 - - 0.0
02/11:30am 15.3 13.0 10.3 72 2.7 N 13 20 7 11 - - 0.0
02/11:00am 14.7 13.1 11.5 81 1.7 N 11 15 6 8 - - 0.0
02/10:30am 13.7 12.4 11.2 85 1.3 N 9 13 5 7 - - 0.0
02/10:00am 13.0 11.7 11.1 88 1.0 N 9 15 5 8 - - 0.0
02/09:30am 12.5 11.1 10.9 90 0.8 N 9 17 5 9 - - 0.0
02/09:00am 12.0 10.5 10.7 92 0.7 NNE 9 13 5 7 - - 4.2
02/08:30am 11.7 10.2 10.4 92 0.7 N 9 15 5 8 - - 4.2
02/08:00am 11.6 10.0 10.3 92 0.7 NNE 9 15 5 8 - - 4.2
02/07:30am 11.6 10.0 10.3 92 0.7 N 9 13 5 7 - - 4.2
02/07:00am 11.7 9.7 10.3 91 0.7 NNE 11 15 6 8 - - 4.0
02/06:30am 11.8 10.3 10.4 91 0.7 N 9 15 5 8 - - 3.6
02/06:00am 11.8 10.1 10.0 89 0.9 N 9 15 5 8 - - 2.8
02/05:30am 12.1 10.0 9.7 85 1.2 N 11 19 6 10 - - 1.6
02/05:00am 12.7 10.1 9.3 80 1.7 N 13 26 7 14 - - 1.2
02/04:30am 11.7 10.0 9.8 88 1.0 N 9 13 5 7 - - 1.2
02/04:00am 11.8 10.5 9.9 88 1.0 NNE 7 11 4 6 - - 1.2
02/03:30am 11.9 10.3 10.1 89 0.9 NNE 9 13 5 7 - - 1.2
02/03:00am 12.1 11.8 10.0 87 1.1 NNE 2 6 1 3 - - 1.2
02/02:30am 12.5 11.8 9.9 84 1.3 N 4 9 2 5 - - 0.8
02/02:00am 13.1 11.7 9.7 80 1.8 N 7 13 4 7 - - 0.0
02/01:30am 13.0 12.5 9.4 79 1.9 N 2 6 1 3 - - 0.0
02/01:00am 13.1 11.7 9.5 79 1.9 NNE 7 9 4 5 - - 0.0
02/12:30am 13.1 11.7 9.7 80 1.8 NNE 7 9 4 5 - - 0.0
02/12:00am 13.8 13.4 9.8 77 2.1 ENE 2 7 1 4 - - 0.0
 
Date/Time
WST
Temp
°C
App
Temp
°C
Dew
Point
Rel
Hum
%
Delta-T
°C
Wind Press
QNH
hPa
Press
MSL
hPa
Rain
since 9 am
mm
Dir
 
Spd
km/h
Gust
km/h
Spd
kts
Gust
kts
01/11:30pm 13.9 13.5 9.9 77 2.1 NNE 2 6 1 3 - - 0.0
01/11:00pm 14.2 13.1 10.0 76 2.2 ENE 6 11 3 6 - - 0.0
01/10:30pm 14.3 13.2 10.1 76 2.2 NE 6 7 3 4 - - 0.0
01/10:00pm 14.3 14.3 9.9 75 2.3 CALM 0 6 0 3 - - 0.0
01/09:30pm 14.4 14.5 10.0 75 2.3 CALM 0 0 0 0 - - 0.0
01/09:00pm 14.8 13.6 10.2 74 2.4 NNE 7 9 4 5 - - 0.0
01/08:30pm 14.1 13.1 10.3 78 2.0 NE 6 9 3 5 - - 0.0
01/08:00pm 14.4 13.4 10.2 76 2.2 NE 6 9 3 5 - - 0.0
01/07:30pm 15.2 14.2 10.4 73 2.6 ENE 6 11 3 6 - - 0.0
01/07:00pm 14.5 14.0 10.7 78 2.0 NNE 4 6 2 3 - - 0.0
01/06:30pm 14.9 14.8 10.7 76 2.2 ENE 2 6 1 3 - - 0.0
01/06:00pm 15.5 14.9 10.5 72 2.7 ENE 4 7 2 4 - - 0.0
01/05:30pm 15.9 15.0 10.7 71 2.8 E 6 7 3 4 - - 0.0
01/05:00pm 16.2 16.1 10.9 71 2.9 ENE 2 7 1 4 - - 0.0
01/04:30pm 16.3 16.6 10.8 70 3.0 CALM 0 0 0 0 - - 0.0
01/04:00pm 17.2 17.5 11.0 67 3.4 CALM 0 0 0 0 - - 0.0
01/03:30pm 17.2 17.5 11.0 67 3.4 CALM 0 0 0 0 - - 0.0
01/03:00pm 17.6 16.9 10.2 62 4.0 NNE 4 7 2 4 - - 0.0
01/02:30pm 17.7 17.4 10.1 61 4.1 NNW 2 6 1 3 - - 0.0
01/02:00pm 18.1 17.8 10.0 59 4.4 N 2 6 1 3 - - 0.0
01/01:30pm 18.3 16.8 8.3 52 5.2 N 6 9 3 5 - - 0.0
01/01:00pm 18.9 16.4 8.0 49 5.7 N 11 20 6 11 - - 0.0
01/12:30pm 19.2 17.2 8.5 50 5.6 NE 9 15 5 8 - - 0.0
01/12:00pm 18.9 17.0 7.7 48 5.8 NNE 7 11 4 6 - - 0.0
01/11:30am 18.2 16.3 7.6 50 5.4 ENE 7 11 4 6 - - 0.0
01/11:00am 17.7 15.7 7.2 50 5.3 NE 7 13 4 7 - - 0.0
01/10:30am 16.6 15.1 9.3 62 3.8 NE 7 11 4 6 - - 0.0
01/10:00am 14.4 12.6 7.9 65 3.3 NE 7 11 4 6 - - 0.0
01/09:30am 14.1 12.4 8.3 68 2.9 NE 7 9 4 5 - - 0.0
01/09:00am 12.3 10.6 7.4 72 2.4 NE 6 11 3 6 - - 0.0
01/08:30am 11.2 9.2 7.3 77 1.9 NE 7 9 4 5 - - 0.0
01/08:00am 9.2 7.1 6.8 85 1.1 NNE 7 11 4 6 - - 0.0
01/07:30am 7.5 5.3 5.3 86 1.0 NE 6 9 3 5 - - 0.0
01/07:00am 7.3 5.0 4.8 84 1.1 NNE 6 7 3 4 - - 0.0
01/06:30am 8.9 7.0 6.5 85 1.1 NE 6 9 3 5 - - 0.0
01/06:00am 9.0 6.9 6.6 85 1.1 NNE 7 7 4 4 - - 0.0
01/05:30am 9.0 6.9 6.6 85 1.1 N 7 9 4 5 - - 0.0
01/05:00am 9.9 7.9 7.2 83 1.3 NNE 7 11 4 6 - - 0.0
01/04:30am 9.7 7.9 7.8 88 0.9 NNE 7 9 4 5 - - 0.0
01/04:00am 8.7 6.8 6.7 87 0.9 NE 6 7 3 4 - - 0.0
01/03:30am 9.5 7.8 7.4 87 1.0 NNE 6 7 3 4 - - 0.0
01/03:00am 10.3 9.5 8.2 87 1.0 NNE 2 6 1 3 - - 0.0
01/02:30am 9.9 8.2 7.7 86 1.1 NNE 6 7 3 4 - - 0.0
01/02:00am 10.4 8.7 8.3 87 1.0 N 7 9 4 5 - - 0.0
01/01:30am 9.7 8.6 7.1 84 1.2 N 2 7 1 4 - - 0.0
01/01:00am 10.8 10.4 8.4 85 1.2 CALM 0 0 0 0 - - 0.0
01/12:30am 10.5 8.9 8.1 85 1.2 N 6 7 3 4 - - 0.0
01/12:00am 10.7 9.9 8.1 84 1.3 NE 2 7 1 4 - - 0.0
 
Date/Time
WST
Temp
°C
App
Temp
°C
Dew
Point
Rel
Hum
%
Delta-T
°C
Wind Press
QNH
hPa
Press
MSL
hPa
Rain
since 9 am
mm
Dir
 
Spd
km/h
Gust
km/h
Spd
kts
Gust
kts
30/11:30pm 10.7 10.2 7.9 83 1.4 CALM 0 0 0 0 - - 0.0
30/11:00pm 11.7 10.2 8.6 81 1.6 N 6 9 3 5 - - 0.0
30/10:30pm 12.0 10.5 8.5 79 1.8 N 6 7 3 4 - - 0.0
30/10:00pm 12.0 10.6 8.8 81 1.6 N 6 7 3 4 - - 0.0
30/09:30pm 11.7 10.4 9.1 84 1.3 N 6 7 3 4 - - 0.0
30/09:00pm 11.1 9.5 8.8 86 1.2 N 7 9 4 5 - - 0.0
30/08:30pm 11.5 10.2 9.2 86 1.2 N 6 7 3 4 - - 0.0
30/08:00pm 11.4 10.1 9.1 86 1.2 N 6 7 3 4 - - 0.0
30/07:30pm 11.7 11.5 9.1 84 1.3 CALM 0 0 0 0 - - 0.0
30/07:00pm 11.7 11.5 9.1 84 1.3 CALM 0 0 0 0 - - 0.0
30/06:30pm 12.7 12.2 9.3 80 1.7 N 2 6 1 3 - - 0.0
30/06:00pm 13.2 12.2 10.2 82 1.6 N 6 7 3 4 - - 0.0
30/05:30pm 13.2 12.1 10.0 81 1.7 N 6 7 3 4 - - 0.0
30/05:00pm 13.5 12.4 10.1 80 1.8 N 6 7 3 4 - - 0.0
30/04:30pm 15.2 15.4 10.4 73 2.6 CALM 0 6 0 3 - - 0.0
30/04:00pm 16.3 15.2 10.6 69 3.1 NNW 7 9 4 5 - - 0.0
30/03:30pm 16.4 14.6 9.6 64 3.6 NNW 9 11 5 6 - - 0.0
30/03:00pm 17.3 15.6 10.0 62 3.9 NNW 9 15 5 8 - - 0.0
30/02:30pm 16.7 14.9 9.4 62 3.8 NNW 9 15 5 8 - - 0.0
30/02:00pm 16.3 14.5 7.8 57 4.3 N 7 11 4 6 - - 0.0
30/01:30pm 15.5 14.0 8.3 62 3.7 N 6 9 3 5 - - 0.0
30/01:00pm 14.7 12.7 7.3 61 3.7 N 7 11 4 6 - - 0.0
30/12:30pm 14.3 12.1 6.4 59 3.9 N 7 13 4 7 - - 0.0
30/12:00pm 13.8 11.5 5.9 59 3.8 NNW 7 11 4 6 - - 0.0
30/11:30am 12.6 9.8 5.3 61 3.4 N 9 17 5 9 - - 0.0
30/11:00am 12.5 9.1 4.2 57 3.8 N 11 19 6 10 - - 0.0
30/10:30am 12.7 9.1 4.9 59 3.6 N 13 22 7 12 - - 0.0
30/10:00am 12.4 9.2 5.3 62 3.3 N 11 17 6 9 - - 0.0
30/09:30am 11.0 8.2 5.1 67 2.7 N 9 13 5 7 - - 0.0
30/09:00am 9.4 6.9 5.0 74 2.0 N 7 11 4 6 - - 0.2
30/08:30am 8.5 6.0 4.5 76 1.8 N 7 11 4 6 - - 0.2
30/08:00am 7.5 4.8 3.9 78 1.6 N 7 11 4 6 - - 0.2
30/07:30am 6.9 4.4 3.9 81 1.3 N 6 11 3 6 - - 0.2
30/07:00am 6.7 4.2 4.0 83 1.2 N 6 7 3 4 - - 0.2
30/06:30am 7.0 4.5 4.0 81 1.3 N 6 9 3 5 - - 0.2
30/06:00am 7.3 4.7 4.1 80 1.4 N 7 9 4 5 - - 0.2
30/05:30am 7.4 4.8 4.2 80 1.4 N 7 11 4 6 - - 0.2
30/05:00am 7.8 5.5 4.6 80 1.4 N 6 9 3 5 - - 0.2
30/04:30am 7.8 5.3 4.6 80 1.4 N 7 9 4 5 - - 0.2
30/04:00am 8.1 5.6 5.0 81 1.4 N 7 11 4 6 - - 0.2
30/03:30am 7.9 5.4 5.0 82 1.3 N 7 11 4 6 - - 0.2
30/03:00am 7.2 4.7 4.7 84 1.1 N 7 11 4 6 - - 0.2
30/02:30am 7.6 5.2 5.4 86 1.0 N 7 11 4 6 - - 0.2

Other Formats:

Comma delimited format used in spreadsheet applications
http://www.bom.gov.au/fwo/IDW60801/IDW60801.94631.axf

JavaScript Object Notation format (JSON) in row-major order
http://www.bom.gov.au/fwo/IDW60801/IDW60801.94631.json